Time;durP1;ratioP1;P1;durP2;ratioP2;P2;SDS_P1;SDS_P2;PMS_P1;PMS_P2;Temp;Humidity;BMP_temperature;BMP_pressure;BME280_temperature;BME280_humidity;BME280_pressure;Samples;Min_cycle;Max_cycle;Signal;HPM_P1;HPM_P2
2023/12/05 00:01:44;;;;;;;0.90;0.90;;;;;;;1.35;100.00;100962.94;5013694;28;20216;-74
2023/12/05 00:04:10;;;;;;;1.30;1.30;;;;;;;0.77;100.00;100883.28;5013775;28;20672;-73
2023/12/05 00:06:37;;;;;;;1.50;1.50;;;;;;;1.31;100.00;100977.97;5013498;28;20632;-73
2023/12/05 00:09:04;;;;;;;3.63;3.43;;;;;;;1.28;100.00;100976.09;5013560;28;20215;-73
2023/12/05 00:11:31;;;;;;;1.50;1.50;;;;;;;1.30;100.00;100966.84;5013600;28;20264;-73
2023/12/05 00:13:58;;;;;;;2.70;2.60;;;;;;;1.13;100.00;100944.44;5013150;28;20209;-73
2023/12/05 00:16:25;;;;;;;3.33;3.00;;;;;;;1.37;100.00;100975.78;5013515;28;20197;-73
2023/12/05 00:18:53;;;;;;;1.17;1.17;;;;;;;1.44;100.00;100973.75;5012835;28;20294;-73
2023/12/05 00:21:20;;;;;;;1.43;1.43;;;;;;;1.42;100.00;100975.34;5012861;28;20204;-74
2023/12/05 00:23:46;;;;;;;1.20;1.20;;;;;;;1.38;100.00;100978.47;5012388;28;20205;-73
2023/12/05 00:26:13;;;;;;;2.23;2.13;;;;;;;1.14;100.00;100941.06;5012202;28;20220;-73
2023/12/05 00:28:40;;;;;;;2.27;2.17;;;;;;;1.21;100.00;100979.03;5013041;28;20566;-73
2023/12/05 00:31:07;;;;;;;1.80;1.77;;;;;;;1.16;100.00;100980.38;5013315;28;20250;-73
2023/12/05 00:33:34;;;;;;;1.70;1.70;;;;;;;1.10;100.00;100974.88;4978373;28;20197;-73
2023/12/05 00:36:02;;;;;;;0.90;0.90;;;;;;;1.04;100.00;100964.22;5012993;28;20201;-73
2023/12/05 00:38:29;;;;;;;1.30;1.30;;;;;;;0.96;100.00;100955.22;5013027;28;20228;-73
2023/12/05 00:40:58;;;;;;;2.50;2.40;;;;;;;0.59;100.00;100907.56;4978741;28;20204;-73
2023/12/05 00:43:25;;;;;;;1.67;1.67;;;;;;;0.91;100.00;100954.88;4978910;28;20200;-73
2023/12/05 00:45:52;;;;;;;0.90;0.90;;;;;;;0.89;100.00;100958.13;5012869;28;20205;-73
2023/12/05 00:48:19;;;;;;;1.47;1.47;;;;;;;0.79;100.00;100960.81;5012926;28;20213;-73
2023/12/05 00:50:45;;;;;;;1.63;1.63;;;;;;;0.12;100.00;100854.22;5012998;28;20731;-74
2023/12/05 00:53:14;;;;;;;1.07;1.07;;;;;;;0.76;100.00;100955.50;5012498;28;20262;-74
2023/12/05 00:55:40;;;;;;;1.60;1.60;;;;;;;0.68;100.00;100951.59;5012622;28;20628;-74
2023/12/05 00:58:07;;;;;;;1.90;1.87;;;;;;;0.66;100.00;100946.38;4994051;28;20189;-75
2023/12/05 01:00:34;;;;;;;2.83;1.57;;;;;;;0.45;100.00;100927.94;5012271;28;20212;-75
2023/12/05 01:03:01;;;;;;;1.80;1.80;;;;;;;0.47;100.00;100953.53;4977338;28;20201;-75
2023/12/05 01:05:27;;;;;;;3.10;3.00;;;;;;;0.53;100.00;100941.22;4993773;28;20197;-74
2023/12/05 01:07:54;;;;;;;1.57;1.57;;;;;;;0.56;100.00;100937.97;5012879;28;20204;-74
2023/12/05 01:10:22;;;;;;;1.30;1.30;;;;;;;0.50;100.00;100912.91;5012224;28;20316;-74
2023/12/05 01:12:49;;;;;;;1.40;1.40;;;;;;;0.49;100.00;100939.25;5011575;28;20207;-73
2023/12/05 01:15:16;;;;;;;1.10;1.10;;;;;;;0.52;100.00;100938.53;5012005;28;20201;-73
2023/12/05 01:17:43;;;;;;;1.10;1.10;;;;;;;0.21;100.00;100895.66;5012283;28;20209;-73
2023/12/05 01:20:11;;;;;;;1.50;1.50;;;;;;;0.52;100.00;100941.09;5010182;28;20231;-74
2023/12/05 01:22:38;;;;;;;1.00;1.00;;;;;;;0.46;100.00;100924.59;5012283;28;20554;-73
2023/12/05 01:25:07;;;;;;;1.60;1.60;;;;;;;0.58;100.00;100923.66;5012081;28;20229;-73
2023/12/05 01:27:35;;;;;;;1.80;1.70;;;;;;;0.38;100.00;100895.16;5012362;28;20258;-73
2023/12/05 01:30:02;;;;;;;1.40;1.30;;;;;;;0.42;100.00;100911.53;5012146;28;20197;-72
2023/12/05 01:32:29;;;;;;;1.23;1.23;;;;;;;0.37;100.00;100897.56;5011801;28;20228;-73
2023/12/05 01:34:56;;;;;;;1.30;1.30;;;;;;;0.40;100.00;100908.88;5012096;28;20228;-73
2023/12/05 01:37:23;;;;;;;1.30;1.30;;;;;;;0.33;100.00;100895.59;5012166;28;20213;-74
2023/12/05 01:39:50;;;;;;;1.33;1.33;;;;;;;0.12;100.00;100849.13;5012009;28;20216;-73
2023/12/05 01:42:17;;;;;;;3.07;2.90;;;;;;;0.40;100.00;100887.56;5011485;28;20205;-73
2023/12/05 01:44:45;;;;;;;1.20;1.20;;;;;;;0.34;100.00;100862.56;5011554;28;20205;-73
2023/12/05 01:47:16;;;;;;;1.67;1.60;;;;;;;0.39;100.00;100876.47;5012257;28;20193;-73
2023/12/05 01:49:44;;;;;;;1.00;1.00;;;;;;;0.41;100.00;100886.81;5011817;28;20208;-73
2023/12/05 01:52:11;;;;;;;1.00;1.00;;;;;;;0.30;100.00;100880.97;5011411;28;20312;-72
2023/12/05 01:54:39;;;;;;;0.90;0.90;;;;;;;0.43;100.00;100881.00;5011724;28;20189;-73
2023/12/05 01:57:07;;;;;;;1.20;1.20;;;;;;;0.46;100.00;100868.47;5011314;28;20673;-73
2023/12/05 01:59:34;;;;;;;1.70;1.70;;;;;;;0.47;100.00;100864.25;5011101;28;20292;-73
2023/12/05 02:02:03;;;;;;;1.30;1.30;;;;;;;0.53;100.00;100863.78;5019340;28;20203;-73
2023/12/05 02:04:31;;;;;;;1.17;1.17;;;;;;;0.50;100.00;100864.44;4998434;28;20217;-74
2023/12/05 02:06:59;;;;;;;1.30;1.30;;;;;;;0.52;100.00;100867.13;5011347;28;20244;-73
2023/12/05 02:09:26;;;;;;;1.87;1.77;;;;;;;0.47;100.00;100854.94;5010976;28;20589;-73
2023/12/05 02:11:52;;;;;;;2.00;1.90;;;;;;;0.36;100.00;100837.13;5010682;28;20235;-73
2023/12/05 02:14:20;;;;;;;1.10;1.10;;;;;;;0.46;100.00;100858.25;5010904;28;20201;-73
2023/12/05 02:16:54;;;;;;;1.20;1.20;;;;;;;0.48;100.00;100850.72;5011244;28;20280;-73
2023/12/05 02:19:40;;;;;;;3.60;1.50;;;;;;;0.24;100.00;100798.97;5011117;28;20597;-73
2023/12/05 02:22:13;;;;;;;1.53;1.53;;;;;;;0.57;100.00;100841.13;5010499;28;20219;-73
2023/12/05 02:24:46;;;;;;;1.20;1.20;;;;;;;0.53;100.00;100848.50;5010969;28;20344;-73
2023/12/05 02:27:19;;;;;;;1.30;1.30;;;;;;;0.50;100.00;100855.13;5010902;28;20205;-73
2023/12/05 02:29:49;;;;;;;1.43;1.43;;;;;;;0.53;100.00;100846.81;5010636;28;20775;-74
2023/12/05 02:32:16;;;;;;;1.53;1.53;;;;;;;0.60;100.00;100854.09;5010628;28;20232;-74
2023/12/05 02:34:43;;;;;;;2.80;2.63;;;;;;;0.67;100.00;100847.72;5010631;28;20189;-74
2023/12/05 02:37:17;;;;;;;0.90;0.90;;;;;;;0.76;100.00;100846.66;5010820;28;20280;-74
2023/12/05 02:39:52;;;;;;;1.67;1.53;;;;;;;0.87;100.00;100849.91;5010352;28;20192;-74
2023/12/05 02:42:22;;;;;;;2.63;2.53;;;;;;;0.69;100.00;100828.28;5010507;28;20600;-74
2023/12/05 02:44:53;;;;;;;1.80;1.77;;;;;;;0.84;100.00;100844.63;4992719;28;20225;-74
2023/12/05 02:47:23;;;;;;;1.17;1.17;;;;;;;0.61;100.00;100822.69;5011070;28;20640;-74
2023/12/05 02:49:50;;;;;;;1.00;1.00;;;;;;;0.65;100.00;100819.56;5010694;28;20732;-74
2023/12/05 02:52:17;;;;;;;2.33;2.23;;;;;;;0.88;100.00;100847.47;5010632;28;20224;-74
2023/12/05 02:54:44;;;;;;;1.10;1.10;;;;;;;0.65;100.00;100808.47;5010994;28;20223;-74
2023/12/05 02:57:11;;;;;;;1.07;1.07;;;;;;;0.83;100.00;100830.06;5011007;28;20205;-74
2023/12/05 02:59:38;;;;;;;1.20;1.20;;;;;;;0.84;100.00;100849.72;4975844;28;20204;-73
2023/12/05 03:02:06;;;;;;;1.40;1.40;;;;;;;0.87;100.00;100847.38;5010844;28;20208;-73
2023/12/05 03:04:33;;;;;;;1.33;1.33;;;;;;;0.42;100.00;100797.66;5016613;28;20196;-74
2023/12/05 03:07:00;;;;;;;1.30;1.30;;;;;;;0.73;100.00;100843.91;5011489;28;20258;-74
2023/12/05 03:09:26;;;;;;;1.00;1.00;;;;;;;0.72;100.00;100846.34;5014786;28;20229;-73
2023/12/05 03:11:53;;;;;;;1.53;1.53;;;;;;;0.67;100.00;100829.88;5010406;28;20279;-73
2023/12/05 03:14:22;;;;;;;1.97;1.90;;;;;;;0.70;100.00;100832.63;5009857;28;20201;-73
2023/12/05 03:16:48;;;;;;;1.00;1.00;;;;;;;0.60;100.00;100827.69;5010713;28;20212;-73
2023/12/05 03:19:17;;;;;;;1.30;1.30;;;;;;;0.04;100.00;100722.81;5010174;28;20244;-73
2023/12/05 03:21:43;;;;;;;1.73;1.63;;;;;;;0.52;100.00;100822.09;5010357;28;20318;-73
2023/12/05 03:24:10;;;;;;;1.50;1.50;;;;;;;0.53;100.00;100828.97;5010572;28;20205;-73
2023/12/05 03:26:37;;;;;;;0.90;0.90;;;;;;;0.37;100.00;100790.47;5010465;28;20205;-73
2023/12/05 03:29:04;;;;;;;1.97;1.87;;;;;;;0.56;100.00;100824.06;5010407;28;20208;-73
2023/12/05 03:31:35;;;;;;;1.20;1.20;;;;;;;0.34;100.00;100821.75;5015168;28;20232;-73
2023/12/05 03:34:02;;;;;;;1.10;1.10;;;;;;;0.31;100.00;100811.34;5022351;28;20235;-73
2023/12/05 03:36:30;;;;;;;1.37;1.37;;;;;;;0.55;100.00;100831.59;5013836;28;20213;-73
2023/12/05 03:38:57;;;;;;;1.50;1.50;;;;;;;0.51;100.00;100835.63;5019148;28;20216;-73
2023/12/05 03:41:24;;;;;;;1.43;1.43;;;;;;;0.50;100.00;100837.28;5016695;28;20282;-73
2023/12/05 03:43:51;;;;;;;1.17;1.17;;;;;;;0.56;100.00;100848.69;5013786;28;20209;-72
2023/12/05 03:46:17;;;;;;;1.40;1.40;;;;;;;0.52;100.00;100841.59;5012908;28;20208;-73
2023/12/05 03:48:44;;;;;;;1.00;1.00;;;;;;;0.57;100.00;100840.25;5003451;28;20205;-73
2023/12/05 03:51:11;;;;;;;1.80;1.80;;;;;;;0.62;100.00;100838.88;5013623;28;20221;-73
2023/12/05 03:53:39;;;;;;;1.20;1.20;;;;;;;0.72;100.00;100836.16;4994932;28;20200;-74
2023/12/05 03:56:07;;;;;;;1.60;1.60;;;;;;;0.62;100.00;100823.56;5013261;28;20204;-73
2023/12/05 03:58:34;;;;;;;1.20;1.20;;;;;;;0.55;100.00;100823.94;5013346;28;20220;-74
2023/12/05 04:01:00;;;;;;;1.40;1.40;;;;;;;0.22;100.00;100795.41;5013575;28;20208;-74
2023/12/05 04:03:27;;;;;;;1.10;1.10;;;;;;;0.40;100.00;100829.81;5013323;28;20201;-73
2023/12/05 04:05:54;;;;;;;2.50;2.40;;;;;;;0.41;100.00;100846.00;5013858;28;20264;-73
2023/12/05 04:08:21;;;;;;;1.70;1.60;;;;;;;0.81;100.00;100836.75;5013607;28;20442;-75
2023/12/05 04:10:49;;;;;;;1.60;1.60;;;;;;;1.34;100.00;100825.78;5012319;28;20808;-76
2023/12/05 04:13:16;;;;;;;1.33;1.30;;;;;;;1.04;100.00;100800.84;5009393;28;20239;-75
2023/12/05 04:15:42;;;;;;;1.87;1.87;;;;;;;1.02;100.00;100832.16;5013497;28;20201;-75
2023/12/05 04:18:09;;;;;;;2.70;2.60;;;;;;;0.82;100.00;100825.78;5013452;28;20192;-74
2023/12/05 04:20:36;;;;;;;1.10;1.10;;;;;;;0.71;100.00;100819.09;5013546;28;20220;-74
2023/12/05 04:23:03;;;;;;;1.23;1.23;;;;;;;0.64;100.00;100816.91;5013215;28;20668;-75
2023/12/05 04:25:30;;;;;;;1.50;1.50;;;;;;;0.31;100.00;100779.84;5010642;28;20212;-76
2023/12/05 04:27:58;;;;;;;3.03;2.90;;;;;;;0.42;100.00;100812.94;4993341;28;20220;-74
2023/12/05 04:30:25;;;;;;;1.20;1.20;;;;;;;0.32;100.00;100799.50;5010193;28;20193;-73
2023/12/05 04:32:52;;;;;;;1.10;1.10;;;;;;;0.16;100.00;100797.56;5012798;28;20232;-73
2023/12/05 04:35:19;;;;;;;2.47;2.37;;;;;;;0.11;100.00;100778.50;5012756;28;20208;-73
2023/12/05 04:37:45;;;;;;;2.17;2.17;;;;;;;0.11;100.00;100791.25;5009922;28;20193;-74
2023/12/05 04:40:13;;;;;;;1.30;1.30;;;;;;;0.10;100.00;100786.97;5012688;28;20205;-74
2023/12/05 04:42:39;;;;;;;1.10;1.10;;;;;;;0.04;100.00;100781.44;5026032;28;20625;-74
2023/12/05 04:45:09;;;;;;;1.40;1.40;;;;;;;0.00;100.00;100756.53;5011977;28;20688;-70
2023/12/05 04:47:35;;;;;;;1.20;1.20;;;;;;;0.15;100.00;100764.31;5012773;28;20232;-73
2023/12/05 04:50:03;;;;;;;6.10;3.33;;;;;;;0.08;100.00;100759.59;4978162;28;20688;-73
2023/12/05 04:52:30;;;;;;;1.30;1.30;;;;;;;-0.37;100.00;100670.75;5012613;28;20391;-73
2023/12/05 04:54:57;;;;;;;2.27;2.20;;;;;;;0.10;100.00;100743.63;5012813;28;20204;-73
2023/12/05 04:57:24;;;;;;;1.00;1.00;;;;;;;0.15;100.00;100754.09;5013190;28;20200;-73
2023/12/05 04:59:50;;;;;;;1.93;1.93;;;;;;;0.08;100.00;100750.28;5012746;28;20209;-73
2023/12/05 05:02:18;;;;;;;1.50;1.50;;;;;;;0.18;100.00;100747.53;5012620;28;20256;-73
2023/12/05 05:04:45;;;;;;;2.60;2.40;;;;;;;0.12;100.00;100753.91;4978322;28;20201;-72
2023/12/05 05:07:12;;;;;;;1.20;1.20;;;;;;;0.17;100.00;100756.00;5011461;28;20277;-73
2023/12/05 05:09:41;;;;;;;3.17;2.73;;;;;;;0.14;100.00;100755.81;4994420;28;20212;-73
2023/12/05 05:12:08;;;;;;;1.40;1.40;;;;;;;0.22;100.00;100762.28;5012622;28;20220;-74
2023/12/05 05:14:36;;;;;;;1.20;1.20;;;;;;;0.24;100.00;100765.81;5012734;28;20205;-73
2023/12/05 05:17:03;;;;;;;1.10;1.10;;;;;;;0.26;100.00;100761.69;5012692;28;20197;-73
2023/12/05 05:19:32;;;;;;;1.00;1.00;;;;;;;0.22;100.00;100759.72;5011913;28;20743;-74
2023/12/05 05:21:59;;;;;;;1.30;1.30;;;;;;;0.12;100.00;100757.34;5011575;28;20235;-74
2023/12/05 05:24:26;;;;;;;2.03;2.03;;;;;;;0.15;100.00;100749.00;5012351;28;20204;-71
2023/12/05 05:26:54;;;;;;;1.20;1.20;;;;;;;0.27;100.00;100750.72;5012267;28;20197;-73
2023/12/05 05:29:21;;;;;;;5.20;2.53;;;;;;;0.13;100.00;100743.84;4978071;28;20206;-73
2023/12/05 05:31:48;;;;;;;1.70;1.70;;;;;;;0.22;100.00;100740.97;5011834;28;20236;-73
2023/12/05 05:34:15;;;;;;;1.10;1.10;;;;;;;0.20;100.00;100730.69;5010421;28;20205;-72
2023/12/05 05:36:43;;;;;;;1.30;1.30;;;;;;;0.25;100.00;100729.31;4994097;28;20208;-72
2023/12/05 05:39:09;;;;;;;1.30;1.30;;;;;;;0.28;100.00;100731.22;5012292;28;20262;-71
2023/12/05 05:41:36;;;;;;;1.20;1.20;;;;;;;0.27;100.00;100725.22;5012053;28;20208;-72
2023/12/05 05:44:03;;;;;;;0.93;0.93;;;;;;;0.46;100.00;100746.03;5011938;28;20208;-73
2023/12/05 05:46:30;;;;;;;1.37;1.37;;;;;;;0.32;100.00;100721.28;5012013;28;20212;-73
2023/12/05 05:48:57;;;;;;;1.30;1.30;;;;;;;0.33;100.00;100723.06;5009600;28;20215;-74
2023/12/05 05:51:25;;;;;;;1.13;1.13;;;;;;;0.49;100.00;100755.56;5011993;28;20289;-74
2023/12/05 05:53:54;;;;;;;1.00;1.00;;;;;;;0.67;100.00;100763.53;5011727;28;20591;-74
2023/12/05 05:56:21;;;;;;;1.40;1.40;;;;;;;0.59;100.00;100746.84;5011531;28;20207;-73
2023/12/05 05:58:47;;;;;;;1.93;1.83;;;;;;;0.45;100.00;100725.53;5011032;28;20193;-73
2023/12/05 06:01:14;;;;;;;2.50;2.40;;;;;;;0.68;100.00;100762.75;5011322;28;20201;-74
2023/12/05 06:03:41;;;;;;;1.50;1.50;;;;;;;1.01;100.00;100754.69;5011689;28;20200;-74
2023/12/05 06:06:10;;;;;;;6.30;3.90;;;;;;;1.04;100.00;100734.44;5010755;28;20208;-77
2023/12/05 06:08:36;;;;;;;1.57;1.57;;;;;;;0.89;100.00;100692.66;5011355;28;20201;-74
2023/12/05 06:11:05;;;;;;;1.73;1.73;;;;;;;1.00;100.00;100778.44;5011483;28;20224;-78
2023/12/05 06:13:32;;;;;;;1.10;1.10;;;;;;;0.85;100.00;100767.28;5004125;28;20229;-73
2023/12/05 06:15:59;;;;;;;1.30;1.30;;;;;;;0.94;100.00;100766.19;5001233;28;20208;-78
2023/12/05 06:18:25;;;;;;;1.00;1.00;;;;;;;0.95;100.00;100772.19;5007893;28;20228;-76
2023/12/05 06:20:55;;;;;;;3.30;2.47;;;;;;;0.77;100.00;100773.53;5011131;28;20204;-74
2023/12/05 06:23:22;;;;;;;1.47;1.47;;;;;;;0.61;100.00;100770.81;5007642;28;20193;-74
2023/12/05 06:25:49;;;;;;;3.93;2.90;;;;;;;0.58;100.00;100771.47;5011409;28;20685;-74
2023/12/05 06:28:17;;;;;;;2.90;2.80;;;;;;;0.66;100.00;100757.53;5010992;28;20201;-75
2023/12/05 06:30:44;;;;;;;1.70;1.70;;;;;;;0.31;100.00;100694.03;5007829;28;20204;-76
2023/12/05 06:33:11;;;;;;;1.73;1.73;;;;;;;0.66;100.00;100738.78;5010756;28;20247;-76
2023/12/05 06:35:37;;;;;;;1.00;1.00;;;;;;;0.76;100.00;100756.47;5011168;28;20212;-75
2023/12/05 06:38:04;;;;;;;6.90;3.97;;;;;;;1.12;100.00;100753.69;5007191;28;20206;-73
2023/12/05 06:40:31;;;;;;;1.00;1.00;;;;;;;1.35;100.00;100727.03;5010706;28;20196;-75
2023/12/05 06:42:58;;;;;;;2.43;2.23;;;;;;;1.80;100.00;100750.28;4992347;28;20677;-74
2023/12/05 06:45:27;;;;;;;0.97;0.97;;;;;;;2.17;100.00;100750.78;5010931;28;20201;-76
2023/12/05 06:47:54;;;;;;;1.87;1.77;;;;;;;2.39;100.00;100755.50;4972565;28;20727;-75
2023/12/05 06:50:21;;;;;;;2.10;2.00;;;;;;;2.40;100.00;100700.94;5010832;28;20251;-73
2023/12/05 06:52:49;;;;;;;1.37;1.37;;;;;;;2.81;100.00;100737.44;5010577;28;20220;-73
2023/12/05 06:55:16;;;;;;;2.13;2.03;;;;;;;2.95;100.00;100736.53;4976782;28;20750;-73
2023/12/05 06:57:43;;;;;;;2.97;2.87;;;;;;;3.12;100.00;100740.00;5010799;28;20216;-73
2023/12/05 07:00:11;;;;;;;1.53;1.53;;;;;;;3.28;100.00;100744.31;4976045;28;20212;-73
2023/12/05 07:02:39;;;;;;;1.03;1.03;;;;;;;3.36;100.00;100737.91;5010400;28;20284;-73
2023/12/05 07:05:08;;;;;;;0.83;0.83;;;;;;;3.31;100.00;100735.09;5010627;28;20209;-74
2023/12/05 07:07:35;;;;;;;1.07;1.07;;;;;;;3.48;100.00;100734.31;5010173;28;20535;-73
2023/12/05 07:10:02;;;;;;;1.87;1.77;;;;;;;3.38;100.00;100711.56;5001267;28;20597;-73
2023/12/05 07:12:29;;;;;;;1.10;1.10;;;;;;;3.48;100.00;100723.19;5012267;28;20279;-74
2023/12/05 07:14:56;;;;;;;1.63;1.63;;;;;;;3.42;100.00;100721.16;5014325;28;20660;-74
2023/12/05 07:17:22;;;;;;;1.90;1.80;;;;;;;3.37;100.00;100722.63;5014337;28;20213;-73
2023/12/05 07:19:50;;;;;;;2.47;2.37;;;;;;;3.11;100.00;100706.63;5014289;28;20292;-74
2023/12/05 07:22:17;;;;;;;1.43;1.43;;;;;;;2.95;100.00;100699.81;4991879;28;20253;-73
2023/12/05 07:24:44;;;;;;;1.27;1.27;;;;;;;2.63;100.00;100698.00;5000204;28;20211;-73
2023/12/05 07:27:11;;;;;;;1.70;1.60;;;;;;;2.56;100.00;100687.34;4995734;28;20676;-73
2023/12/05 07:29:37;;;;;;;1.10;1.10;;;;;;;2.42;100.00;100684.91;5014035;28;20196;-73
2023/12/05 07:32:04;;;;;;;3.77;3.53;;;;;;;2.21;100.00;100683.63;4969008;28;20228;-73
2023/12/05 07:34:31;;;;;;;1.23;1.23;;;;;;;2.07;100.00;100681.13;5010554;28;20228;-73
2023/12/05 07:37:00;;;;;;;3.13;3.03;;;;;;;2.08;100.00;100678.63;5005367;28;20201;-73
2023/12/05 07:39:27;;;;;;;1.43;1.43;;;;;;;2.19;100.00;100680.13;5007979;28;20259;-73
2023/12/05 07:41:54;;;;;;;1.53;1.53;;;;;;;2.27;100.00;100672.91;5003301;28;20208;-73
2023/12/05 07:44:21;;;;;;;5.73;4.93;;;;;;;1.43;100.00;100536.78;5014200;28;20205;-73
2023/12/05 07:46:47;;;;;;;2.77;2.67;;;;;;;2.20;100.00;100656.31;5013672;28;20193;-73
2023/12/05 07:49:15;;;;;;;1.43;1.33;;;;;;;2.20;100.00;100671.66;5014059;28;20204;-73
2023/12/05 07:51:42;;;;;;;9.50;2.50;;;;;;;2.33;100.00;100688.59;5009487;28;20207;-74
2023/12/05 07:54:10;;;;;;;1.30;1.30;;;;;;;2.42;100.00;100690.03;5003961;28;20232;-73
2023/12/05 07:56:37;;;;;;;2.63;2.43;;;;;;;2.26;100.00;100655.78;5001774;28;20208;-74
2023/12/05 07:59:03;;;;;;;3.03;2.90;;;;;;;2.46;100.00;100683.41;5013404;28;20205;-74
2023/12/05 08:01:30;;;;;;;1.20;1.20;;;;;;;2.45;100.00;100662.03;5013612;28;20201;-74
2023/12/05 08:03:57;;;;;;;1.20;1.20;;;;;;;2.32;100.00;100657.00;5013843;28;20209;-74
2023/12/05 08:06:24;;;;;;;2.40;2.30;;;;;;;2.67;100.00;100679.47;5013629;28;20195;-74
2023/12/05 08:08:51;;;;;;;1.10;1.10;;;;;;;2.68;100.00;100688.00;5013709;28;20279;-74
2023/12/05 08:11:20;;;;;;;1.40;1.40;;;;;;;2.71;100.00;100667.72;4979163;28;20284;-74
2023/12/05 08:13:48;;;;;;;1.77;1.77;;;;;;;2.77;100.00;100673.19;5013106;28;20232;-74
2023/12/05 08:16:14;;;;;;;2.50;2.40;;;;;;;2.56;100.00;100626.81;5013671;28;20227;-74
2023/12/05 08:18:41;;;;;;;2.03;1.90;;;;;;;2.82;100.00;100666.59;4978663;28;20229;-74
2023/12/05 08:21:08;;;;;;;1.07;1.07;;;;;;;2.94;100.00;100674.97;5013350;28;20201;-73
2023/12/05 08:23:35;;;;;;;4.00;2.77;;;;;;;2.89;100.00;100668.75;5013289;28;20587;-74
2023/12/05 08:26:02;;;;;;;1.33;1.33;;;;;;;2.87;100.00;100665.19;5013364;28;20274;-75
2023/12/05 08:28:30;;;;;;;1.30;1.30;;;;;;;3.14;100.00;100664.13;5013121;28;20196;-75
2023/12/05 08:30:57;;;;;;;1.90;1.40;;;;;;;3.05;100.00;100644.81;5013223;28;20212;-71
2023/12/05 08:33:24;;;;;;;1.83;1.83;;;;;;;3.26;100.00;100651.97;5012788;28;20656;-75
2023/12/05 08:35:50;;;;;;;1.27;1.27;;;;;;;3.53;100.00;100659.34;5013013;28;20653;-74
2023/12/05 08:38:17;;;;;;;1.93;1.87;;;;;;;3.68;100.00;100655.00;5013236;28;20751;-74
2023/12/05 08:40:44;;;;;;;1.63;1.63;;;;;;;3.40;100.00;100604.88;5013073;28;20201;-74
2023/12/05 08:43:11;;;;;;;1.70;1.70;;;;;;;3.56;100.00;100639.00;5012650;28;20211;-76
2023/12/05 08:45:39;;;;;;;1.80;1.70;;;;;;;3.77;100.00;100617.91;5012929;28;20205;-77
2023/12/05 08:48:06;;;;;;;1.37;1.37;;;;;;;2.83;100.00;100472.13;5012862;28;20647;-76
2023/12/05 08:50:33;;;;;;;2.47;2.37;;;;;;;4.08;100.00;100645.94;4994862;28;20219;-76
2023/12/05 08:52:59;;;;;;;1.40;1.40;;;;;;;4.21;100.00;100635.47;5012547;28;20242;-77
2023/12/05 08:55:27;;;;;;;1.40;1.40;;;;;;;3.88;100.00;100605.59;5012793;28;20780;-77
2023/12/05 08:57:53;;;;;;;1.20;1.20;;;;;;;3.82;100.00;100643.75;5012857;28;20578;-77
2023/12/05 09:00:20;;;;;;;3.03;1.90;;;;;;;3.83;100.00;100635.25;5012678;28;20211;-76
2023/12/05 09:02:48;;;;;;;3.80;2.80;;;;;;;3.86;100.00;100648.25;5012763;28;20200;-76
2023/12/05 09:05:15;;;;;;;1.33;1.33;;;;;;;4.20;100.00;100646.56;5012652;28;20208;-77
2023/12/05 09:07:42;;;;;;;1.83;1.73;;;;;;;3.70;100.00;100648.28;5012524;28;20323;-76
2023/12/05 09:10:09;;;;;;;1.10;1.10;;;;;;;3.35;100.00;100672.09;5012385;28;20200;-76
2023/12/05 09:12:35;;;;;;;1.63;1.63;;;;;;;3.33;100.00;100664.31;5012019;28;20216;-76
2023/12/05 09:15:02;;;;;;;2.07;1.97;;;;;;;2.78;100.00;100664.72;4993995;28;20638;-76
2023/12/05 09:17:29;;;;;;;1.27;1.27;;;;;;;2.69;100.00;100638.59;5012663;28;20308;-77
2023/12/05 09:19:57;;;;;;;1.97;1.87;;;;;;;2.83;100.00;100640.22;5012528;28;20335;-74
2023/12/05 09:22:24;;;;;;;2.83;2.63;;;;;;;2.64;100.00;100637.47;5012242;28;20276;-76
2023/12/05 09:24:51;;;;;;;3.13;2.93;;;;;;;3.19;100.00;100642.19;5012358;28;20200;-75
2023/12/05 09:27:18;;;;;;;2.83;1.73;;;;;;;3.27;100.00;100642.59;4977872;28;20193;-76
2023/12/05 09:29:44;;;;;;;6.20;2.43;;;;;;;3.36;100.00;100649.09;5011844;28;20200;-73
2023/12/05 09:32:11;;;;;;;1.20;1.20;;;;;;;3.54;100.00;100651.72;5001839;28;20289;-76
2023/12/05 09:34:38;;;;;;;4.07;3.57;;;;;;;3.49;100.00;100610.50;5004617;28;20222;-77
2023/12/05 09:37:06;;;;;;;2.93;1.97;;;;;;;4.05;100.00;100640.66;5001817;28;20288;-77
2023/12/05 09:39:33;;;;;;;1.50;1.50;;;;;;;3.55;100.00;100611.59;5011547;28;20652;-76
2023/12/05 09:42:03;;;;;;;2.07;2.07;;;;;;;3.31;100.00;100630.03;5011097;28;20677;-76
2023/12/05 09:44:32;;;;;;;1.37;1.37;;;;;;;2.90;100.00;100644.88;5004017;28;20240;-76
2023/12/05 09:47:04;;;;;;;1.00;1.00;;;;;;;2.56;100.00;100606.34;4970726;28;20302;-76
2023/12/05 09:49:31;;;;;;;1.10;1.10;;;;;;;2.67;100.00;100624.84;5011511;28;20201;-77
2023/12/05 09:52:00;;;;;;;3.13;2.70;;;;;;;2.91;100.00;100616.81;5011322;28;20255;-78
2023/12/05 09:54:29;;;;;;;1.20;1.20;;;;;;;2.86;100.00;100612.22;5011625;28;20224;-76
2023/12/05 09:56:56;;;;;;;2.00;1.97;;;;;;;3.16;100.00;100587.34;5011174;28;20708;-77
2023/12/05 09:59:23;;;;;;;1.83;1.83;;;;;;;3.15;100.00;100583.91;5011337;28;20705;-77
2023/12/05 10:01:52;;;;;;;4.23;2.30;;;;;;;3.87;100.00;100599.59;5011232;28;20201;-77
2023/12/05 10:04:23;;;;;;;1.80;1.67;;;;;;;4.00;100.00;100552.31;5008636;28;20311;-77
2023/12/05 10:06:51;;;;;;;1.00;1.00;;;;;;;3.63;100.00;100498.38;5000724;28;20919;-77
2023/12/05 10:09:20;;;;;;;1.20;1.20;;;;;;;4.31;100.00;100583.81;5011299;28;20216;-77
2023/12/05 10:11:49;;;;;;;1.03;1.03;;;;;;;4.26;100.00;100572.44;5011314;28;20200;-77
2023/12/05 10:14:16;;;;;;;2.70;2.60;;;;;;;4.46;100.00;100584.50;5007417;28;20708;-77
2023/12/05 10:16:44;;;;;;;0.97;0.97;;;;;;;4.24;100.00;100520.16;4997484;28;20204;-77
2023/12/05 10:19:11;;;;;;;1.60;1.60;;;;;;;3.91;100.00;100474.94;5011284;28;20331;-81
2023/12/05 10:21:38;;;;;;;2.73;1.73;;;;;;;4.42;100.00;100582.59;5010592;28;20201;-80
2023/12/05 10:24:05;;;;;;;2.03;1.93;;;;;;;4.44;100.00;100555.31;4993086;28;20303;-80
2023/12/05 10:26:32;;;;;;;1.87;1.83;;;;;;;4.21;100.00;100573.03;5010992;28;20669;-79
2023/12/05 10:29:00;;;;;;;1.63;1.63;;;;;;;4.32;100.00;100569.25;5011179;28;20219;-79
2023/12/05 10:31:28;;;;;;;1.63;1.63;;;;;;;4.03;100.00;100562.75;4987262;28;20197;-79
2023/12/05 10:34:04;;;;;;;1.20;1.20;;;;;;;4.02;100.00;100557.53;5011166;28;20236;-79
2023/12/05 10:36:31;;;;;;;2.63;2.53;;;;;;;3.98;100.00;100571.91;4995248;28;20283;-79
2023/12/05 10:38:58;;;;;;;1.70;1.70;;;;;;;4.42;100.00;100562.06;5004171;28;20212;-78
2023/12/05 10:41:28;;;;;;;1.80;1.67;;;;;;;4.54;100.00;100553.16;5010677;28;20204;-78
2023/12/05 10:43:56;;;;;;;0.93;0.93;;;;;;;4.61;100.00;100562.91;5009193;28;20712;-78
2023/12/05 10:46:25;;;;;;;1.20;1.20;;;;;;;4.26;100.00;100539.06;4998839;28;20289;-77
2023/12/05 10:48:52;;;;;;;7.50;2.50;;;;;;;4.14;100.00;100533.34;4992064;28;20287;-79
2023/12/05 10:51:19;;;;;;;1.20;1.20;;;;;;;4.20;100.00;100546.47;4989287;28;20197;-78
2023/12/05 10:53:46;;;;;;;2.50;2.30;;;;;;;4.22;100.00;100526.00;5004426;28;20229;-79
2023/12/05 10:56:14;;;;;;;5.50;2.90;;;;;;;4.16;100.00;100543.69;5010826;28;20205;-78
2023/12/05 10:58:42;;;;;;;1.70;1.70;;;;;;;4.41;100.00;100547.50;5000052;28;20213;-78
2023/12/05 11:01:10;;;;;;;3.30;3.10;;;;;;;4.46;100.00;100542.53;5007430;28;20201;-79
2023/12/05 11:03:40;;;;;;;2.77;2.57;;;;;;;4.21;100.00;100521.69;5010350;28;20220;-79
2023/12/05 11:06:07;;;;;;;3.77;3.03;;;;;;;4.95;100.00;100540.53;5009885;28;20204;-76
2023/12/05 11:08:34;;;;;;;1.83;1.83;;;;;;;4.07;100.00;100433.78;5010068;28;20287;-75
2023/12/05 11:11:03;;;;;;;2.20;2.10;;;;;;;5.18;100.00;100534.69;5010641;28;20215;-75
2023/12/05 11:13:32;;;;;;;2.50;1.40;;;;;;;5.25;100.00;100523.00;5010093;28;20320;-75
2023/12/05 11:16:04;;;;;;;11.43;2.80;;;;;;;5.40;100.00;100503.09;5011090;28;20236;-77
2023/12/05 11:18:36;;;;;;;2.03;1.93;;;;;;;5.47;100.00;100529.13;5010775;28;20291;-75
2023/12/05 11:21:21;;;;;;;3.03;2.30;;;;;;;5.46;100.00;100531.63;5010686;28;20641;-75
2023/12/05 11:24:08;;;;;;;5.13;3.73;;;;;;;5.43;100.00;100526.34;5010166;28;20239;-75
2023/12/05 11:26:54;;;;;;;3.10;2.90;;;;;;;5.13;100.00;100464.25;4978794;28;20231;-72